Archival Weather

Sydney Intl

Sydney, Australia (YSSY)

Report from: Sunday, March 19, 2023 2:30 PM AEDT
Current time: Tuesday, July 16, 2024 6:53 PM AEST

Current weather – Weather history – Daily summaries
Weather forecast

Present weatherTO
Temperature33.0°C (91.4°F)
Heat index37.1°C (98.7°F)
Dew point22.0°C (71.6°F)
Winds 10 kts (5.1 m/s, 11.5 mph) East (90°)
Visibility6.2 mi. (10 km)
Clouds Few clouds 700 ft. (213 m)
Altimeter29.97 in.Hg (1015 mB)
Relative humidity53 %
Density altitude2,347 ft. (716 m)
Flight conditions Visual Meteorological Conditions
Raw dataYSSY 190330Z 09010KT 9999 FEW007 33/22 Q1015 SEA FOG TO E/SE
An error has occurred. This application may no longer respond until reloaded. Reload 🗙